createdAt,value
2018-05-18T00:01:59.769Z,19.97
2018-05-18T00:04:30.760Z,21.00
2018-05-18T00:07:01.988Z,21.20
2018-05-18T00:09:32.963Z,21.23
2018-05-18T00:12:03.966Z,23.00
2018-05-18T00:14:34.959Z,23.33
2018-05-18T00:17:06.015Z,22.70
2018-05-18T00:19:36.950Z,23.70
2018-05-18T00:22:07.975Z,24.67
2018-05-18T00:24:41.440Z,24.53
2018-05-18T00:27:12.483Z,27.47
2018-05-18T00:29:43.455Z,24.83
2018-05-18T00:32:14.511Z,26.90
2018-05-18T00:34:45.525Z,26.07
2018-05-18T00:37:16.483Z,26.13
2018-05-18T00:39:47.502Z,26.63
2018-05-18T00:42:18.471Z,25.13
2018-05-18T00:44:49.571Z,26.10
2018-05-18T00:47:20.512Z,25.00
2018-05-18T00:49:51.523Z,26.97
2018-05-18T00:52:22.508Z,25.67
2018-05-18T00:54:53.553Z,26.27
2018-05-18T00:57:24.568Z,25.53
2018-05-18T00:59:55.585Z,25.87
2018-05-18T01:02:26.571Z,26.47
2018-05-18T01:04:57.594Z,26.23
2018-05-18T01:07:28.592Z,24.43
2018-05-18T01:09:59.616Z,25.63
2018-05-18T01:12:30.652Z,26.73
2018-05-18T01:15:01.636Z,26.13
2018-05-18T01:17:32.605Z,24.87
2018-05-18T01:20:03.586Z,26.60
2018-05-18T01:22:34.576Z,26.13
2018-05-18T01:25:05.605Z,25.63
2018-05-18T01:27:36.604Z,26.03
2018-05-18T01:30:07.656Z,24.03
2018-05-18T01:32:38.632Z,24.80
2018-05-18T01:35:09.630Z,25.60
2018-05-18T01:37:40.644Z,25.17
2018-05-18T01:40:11.679Z,25.03
2018-05-18T01:42:42.719Z,26.87
2018-05-18T01:45:13.712Z,24.93
2018-05-18T01:47:44.695Z,26.83
2018-05-18T01:50:15.747Z,26.33
2018-05-18T01:52:46.718Z,27.07
2018-05-18T01:55:17.764Z,25.80
2018-05-18T01:57:48.714Z,24.37
2018-05-18T02:00:19.761Z,26.60
2018-05-18T02:02:50.791Z,26.70
2018-05-18T02:05:21.848Z,26.03
2018-05-18T02:07:52.854Z,26.33
2018-05-18T02:10:23.875Z,27.90
2018-05-18T02:12:54.826Z,26.70
2018-05-18T02:15:25.817Z,25.50
2018-05-18T02:17:56.847Z,27.87
2018-05-18T02:20:27.889Z,26.30
2018-05-18T02:22:58.886Z,26.93
2018-05-18T02:25:29.847Z,26.40
2018-05-18T02:28:00.844Z,27.10
2018-05-18T02:30:31.780Z,27.83
2018-05-18T02:33:02.794Z,27.13
2018-05-18T02:35:40.905Z,27.67
2018-05-18T02:38:11.960Z,27.13
2018-05-18T02:40:42.986Z,27.60
2018-05-18T02:43:14.008Z,26.67
2018-05-18T02:45:45.029Z,27.13
2018-05-18T02:48:16.048Z,26.07
2018-05-18T02:50:47.044Z,27.63
2018-05-18T02:53:18.022Z,27.30
2018-05-18T02:55:48.972Z,25.60
2018-05-18T02:58:19.974Z,28.53
2018-05-18T03:00:50.987Z,28.63
2018-05-18T03:03:22.014Z,28.43
2018-05-18T03:05:53.033Z,28.27
2018-05-18T03:08:24.124Z,28.50
2018-05-18T03:10:55.099Z,26.63
2018-05-18T03:13:26.091Z,28.67
2018-05-18T03:15:57.098Z,29.17
2018-05-18T03:18:28.121Z,31.27
2018-05-18T03:20:59.122Z,30.83
2018-05-18T03:23:30.108Z,32.27
2018-05-18T03:26:01.150Z,32.23
2018-05-18T03:28:32.128Z,32.67
2018-05-18T03:31:03.125Z,33.53
2018-05-18T03:33:34.114Z,33.00
2018-05-18T03:36:05.091Z,33.83
2018-05-18T03:38:36.118Z,34.20
2018-05-18T03:41:07.150Z,32.07
2018-05-18T03:43:38.173Z,33.40
2018-05-18T03:46:09.133Z,32.80
2018-05-18T03:48:40.100Z,34.07
2018-05-18T03:51:11.198Z,32.47
2018-05-18T03:53:42.165Z,32.13
2018-05-18T03:56:13.365Z,32.90
2018-05-18T03:58:44.372Z,32.43
2018-05-18T04:01:27.609Z,32.10
2018-05-18T04:04:10.878Z,33.03
2018-05-18T04:06:53.998Z,30.93
2018-05-18T04:09:25.014Z,29.60
2018-05-18T04:11:56.064Z,28.67
2018-05-18T04:14:27.120Z,29.83
2018-05-18T04:16:58.114Z,29.80
2018-05-18T04:19:29.107Z,28.63
2018-05-18T04:22:00.120Z,25.80
2018-05-18T04:24:31.140Z,28.43
2018-05-18T04:27:02.122Z,26.67
2018-05-18T04:29:33.083Z,26.33
2018-05-18T04:32:04.098Z,27.67
2018-05-18T04:34:35.052Z,27.27
2018-05-18T04:37:06.078Z,26.83
2018-05-18T04:39:37.063Z,24.67
2018-05-18T04:42:08.084Z,26.37
2018-05-18T04:44:39.161Z,24.90
2018-05-18T04:47:10.145Z,25.90
2018-05-18T04:49:41.091Z,24.20
2018-05-18T04:52:12.110Z,23.97
2018-05-18T04:54:43.067Z,23.20
2018-05-18T04:57:14.104Z,23.27
2018-05-18T04:59:45.071Z,21.27
2018-05-18T05:02:16.058Z,20.23
2018-05-18T05:04:47.055Z,19.70
2018-05-18T05:07:18.082Z,19.17
2018-05-18T05:09:49.028Z,19.27
2018-05-18T05:12:20.072Z,20.30
2018-05-18T05:14:51.068Z,17.80
2018-05-18T05:17:22.047Z,19.67
2018-05-18T05:19:53.023Z,19.00
2018-05-18T05:22:24.052Z,17.57
2018-05-18T05:24:55.083Z,18.47
2018-05-18T05:27:26.070Z,16.93
2018-05-18T05:29:57.037Z,18.27
2018-05-18T05:32:28.038Z,17.87
2018-05-18T05:34:59.011Z,17.63
2018-05-18T05:37:30.050Z,18.23
2018-05-18T05:40:01.076Z,16.37
2018-05-18T05:42:32.062Z,18.23
2018-05-18T05:45:03.104Z,16.63
2018-05-18T05:47:34.069Z,16.20
2018-05-18T05:50:05.105Z,18.50
2018-05-18T05:52:36.106Z,15.77
2018-05-18T05:55:07.084Z,17.20
2018-05-18T05:57:38.072Z,16.33
2018-05-18T06:00:09.131Z,15.97
2018-05-18T06:02:40.144Z,16.87
2018-05-18T06:05:11.130Z,17.23
2018-05-18T06:07:42.128Z,16.57
2018-05-18T06:10:13.074Z,15.77
2018-05-18T06:12:44.115Z,14.73
2018-05-18T06:15:15.072Z,14.40
2018-05-18T06:17:46.044Z,14.37
2018-05-18T06:20:17.087Z,14.73
2018-05-18T06:22:48.060Z,14.10
2018-05-18T06:25:19.073Z,15.37
2018-05-18T06:27:50.036Z,13.80
2018-05-18T06:30:28.110Z,16.17
2018-05-18T06:32:59.080Z,19.07
2018-05-18T06:35:30.129Z,15.73
2018-05-18T06:38:01.147Z,19.67
2018-05-18T06:40:32.187Z,13.67
2018-05-18T06:43:03.171Z,13.88
2018-05-18T06:45:34.186Z,12.73
2018-05-18T06:48:05.156Z,13.75
2018-05-18T06:50:36.210Z,13.27
2018-05-18T06:53:07.199Z,13.57
2018-05-18T06:55:38.211Z,15.20
2018-05-18T06:58:09.233Z,12.23
2018-05-18T07:00:40.280Z,12.52
2018-05-18T07:03:11.280Z,12.73
2018-05-18T07:05:42.308Z,11.98
2018-05-18T07:08:13.288Z,12.25
2018-05-18T07:10:44.316Z,12.32
2018-05-18T07:13:15.248Z,12.15
2018-05-18T07:15:46.248Z,11.80
2018-05-18T07:18:17.231Z,12.73
2018-05-18T07:20:48.247Z,11.35
2018-05-18T07:23:19.262Z,10.95
2018-05-18T07:25:50.286Z,11.23
2018-05-18T07:28:21.335Z,11.95
2018-05-18T07:30:52.400Z,10.98
2018-05-18T07:33:23.485Z,11.38
2018-05-18T07:35:54.485Z,11.00
2018-05-18T07:38:25.459Z,9.50
2018-05-18T07:40:56.560Z,10.40
2018-05-18T07:43:27.574Z,9.85
2018-05-18T07:45:58.555Z,10.48
2018-05-18T07:48:29.636Z,9.68
2018-05-18T07:51:00.588Z,13.10
2018-05-18T07:53:31.701Z,10.48
2018-05-18T07:56:02.663Z,10.30
2018-05-18T07:58:33.686Z,18.15
2018-05-18T08:01:04.681Z,10.52
2018-05-18T08:03:35.700Z,10.55
2018-05-18T08:06:06.695Z,9.98
2018-05-18T08:08:37.737Z,9.77
2018-05-18T08:11:08.770Z,9.52
2018-05-18T08:13:39.813Z,9.80
2018-05-18T08:16:10.836Z,9.35
2018-05-18T08:18:41.876Z,10.15
2018-05-18T08:21:12.912Z,10.48
2018-05-18T08:23:43.906Z,9.80
2018-05-18T08:26:15.019Z,9.77
2018-05-18T08:28:58.374Z,9.30
2018-05-18T08:31:29.379Z,9.30
2018-05-18T08:34:00.456Z,9.20
2018-05-18T08:36:31.444Z,9.60
2018-05-18T08:39:02.555Z,8.98
2018-05-18T08:41:33.574Z,9.57
2018-05-18T08:44:04.762Z,9.40
2018-05-18T08:46:35.785Z,8.93
2018-05-18T08:49:06.804Z,8.52
2018-05-18T08:51:37.842Z,8.77
2018-05-18T08:54:08.991Z,8.68
2018-05-18T08:56:40.014Z,10.10
2018-05-18T08:59:11.042Z,10.00
2018-05-18T09:01:42.182Z,10.38
2018-05-18T09:04:13.178Z,8.38
2018-05-18T09:06:44.284Z,9.25
2018-05-18T09:09:15.290Z,7.95
2018-05-18T09:11:46.262Z,8.50
2018-05-18T09:14:17.279Z,9.05
2018-05-18T09:16:48.330Z,9.55
2018-05-18T09:19:19.330Z,9.43
2018-05-18T09:21:50.331Z,9.15
2018-05-18T09:24:21.387Z,8.25
2018-05-18T09:26:52.439Z,8.80
2018-05-18T09:29:23.509Z,8.10
2018-05-18T09:31:54.485Z,7.68
2018-05-18T09:34:25.477Z,8.48
2018-05-18T09:36:56.464Z,8.02
2018-05-18T09:39:27.519Z,8.05
2018-05-18T09:41:58.529Z,8.18
2018-05-18T09:44:29.557Z,8.13
2018-05-18T09:47:00.539Z,8.55
2018-05-18T09:49:31.561Z,8.45
2018-05-18T09:52:02.581Z,8.80
2018-05-18T09:54:33.817Z,8.50
2018-05-18T09:57:04.861Z,9.07
2018-05-18T09:59:35.850Z,8.05
2018-05-18T10:02:06.868Z,8.05
2018-05-18T10:04:37.898Z,8.57
2018-05-18T10:07:08.936Z,8.75
2018-05-18T10:09:39.921Z,9.88
2018-05-18T10:12:10.953Z,7.82
2018-05-18T10:14:41.992Z,8.00
2018-05-18T10:17:12.947Z,8.87
2018-05-18T10:19:43.974Z,9.07
2018-05-18T10:22:15.002Z,7.57
2018-05-18T10:24:46.016Z,7.57
2018-05-18T10:27:17.024Z,8.63
2018-05-18T10:29:48.050Z,8.20
2018-05-18T10:32:19.151Z,8.75
2018-05-18T10:34:50.172Z,8.07
2018-05-18T10:37:21.220Z,8.18
2018-05-18T10:39:52.229Z,8.60
2018-05-18T10:42:23.261Z,8.73
2018-05-18T10:44:54.244Z,8.05
2018-05-18T10:47:25.272Z,7.37
2018-05-18T10:49:56.297Z,8.10
2018-05-18T10:52:27.298Z,7.78
2018-05-18T10:54:58.320Z,7.90
2018-05-18T10:57:29.358Z,7.95
2018-05-18T11:00:00.390Z,7.80
2018-05-18T11:02:31.455Z,7.57
2018-05-18T11:05:02.470Z,8.03
2018-05-18T11:07:33.488Z,7.93
2018-05-18T11:10:04.471Z,7.17
2018-05-18T11:12:35.490Z,6.90
2018-05-18T11:15:06.463Z,8.07
2018-05-18T11:17:37.438Z,7.73
2018-05-18T11:20:08.490Z,7.50
2018-05-18T11:22:39.402Z,7.40
2018-05-18T11:25:10.373Z,9.40
2018-05-18T11:27:41.388Z,8.17
2018-05-18T11:30:12.397Z,7.20
2018-05-18T11:32:43.451Z,7.93
2018-05-18T11:35:14.392Z,6.90
2018-05-18T11:37:45.403Z,8.20
2018-05-18T11:40:16.401Z,7.87
2018-05-18T11:42:47.517Z,7.27
2018-05-18T11:45:18.544Z,7.70
2018-05-18T11:47:49.614Z,8.67
2018-05-18T11:50:20.638Z,7.47
2018-05-18T11:52:51.673Z,8.00
2018-05-18T11:55:22.688Z,8.03
2018-05-18T11:57:53.680Z,7.60
2018-05-18T12:00:24.712Z,7.80
2018-05-18T12:02:55.739Z,7.13
2018-05-18T12:05:26.731Z,10.00
2018-05-18T12:07:57.746Z,7.90
2018-05-18T12:10:28.758Z,9.10
2018-05-18T12:13:06.679Z,7.90
2018-05-18T12:15:37.742Z,8.10
2018-05-18T12:18:08.740Z,8.20
2018-05-18T12:20:39.756Z,8.33
2018-05-18T12:23:10.749Z,8.10
2018-05-18T12:25:41.741Z,7.13
2018-05-18T12:28:12.716Z,8.20
2018-05-18T12:30:43.748Z,7.33
2018-05-18T12:33:14.789Z,8.00
2018-05-18T12:35:45.801Z,6.87
2018-05-18T12:38:16.942Z,7.67
2018-05-18T12:40:47.821Z,8.60
2018-05-18T12:43:18.830Z,6.70
2018-05-18T12:45:49.867Z,6.77
2018-05-18T12:48:20.863Z,7.30
2018-05-18T12:50:51.848Z,7.30
2018-05-18T12:53:22.882Z,6.57
2018-05-18T12:55:53.864Z,7.87
2018-05-18T12:58:24.921Z,8.07
2018-05-18T13:00:55.910Z,7.27
2018-05-18T13:03:26.948Z,7.00
2018-05-18T13:05:57.985Z,7.43
2018-05-18T13:08:29.041Z,7.40
2018-05-18T13:11:00.064Z,7.97
2018-05-18T13:13:31.030Z,8.20
2018-05-18T13:16:02.139Z,7.03
2018-05-18T13:18:33.140Z,6.93
2018-05-18T13:21:04.168Z,6.30
2018-05-18T13:23:35.218Z,6.53
2018-05-18T13:26:06.195Z,7.63
2018-05-18T13:28:37.240Z,7.37
2018-05-18T13:31:08.267Z,6.87
2018-05-18T13:33:39.254Z,6.73
2018-05-18T13:36:10.248Z,6.33
2018-05-18T13:38:41.296Z,7.10
2018-05-18T13:41:12.296Z,7.20
2018-05-18T13:43:43.373Z,6.80
2018-05-18T13:46:14.384Z,7.00
2018-05-18T13:48:45.352Z,8.10
2018-05-18T13:51:16.354Z,8.80
2018-05-18T13:53:47.381Z,7.80
2018-05-18T13:56:18.403Z,7.83
2018-05-18T13:58:49.421Z,7.20
2018-05-18T14:01:20.468Z,7.33
2018-05-18T14:03:51.442Z,7.87
2018-05-18T14:06:22.489Z,7.40
2018-05-18T14:08:53.500Z,7.40
2018-05-18T14:11:24.493Z,7.60
2018-05-18T14:13:55.536Z,6.97
2018-05-18T14:16:26.537Z,7.50
2018-05-18T14:18:57.784Z,6.77
2018-05-18T14:21:28.782Z,7.47
2018-05-18T14:23:59.819Z,7.63
2018-05-18T14:26:30.952Z,7.23
2018-05-18T14:29:01.857Z,7.40
2018-05-18T14:31:32.903Z,7.83
2018-05-18T14:34:04.004Z,7.07
2018-05-18T14:36:35.012Z,7.57
2018-05-18T14:39:06.025Z,7.53
2018-05-18T14:41:37.054Z,7.87
2018-05-18T14:44:08.120Z,8.30
2018-05-18T14:46:39.142Z,8.10
2018-05-18T14:49:10.144Z,8.00
2018-05-18T14:51:41.168Z,8.07
2018-05-18T14:54:12.185Z,9.20
2018-05-18T14:56:43.241Z,7.80
2018-05-18T14:59:14.248Z,8.70
2018-05-18T15:01:45.255Z,7.87
2018-05-18T15:04:16.277Z,8.10
2018-05-18T15:06:47.272Z,7.90
2018-05-18T15:09:18.258Z,8.07
2018-05-18T15:11:56.328Z,8.97
2018-05-18T15:14:27.344Z,8.07
2018-05-18T15:16:58.358Z,8.00
2018-05-18T15:19:29.386Z,10.17
2018-05-18T15:22:00.345Z,8.17
2018-05-18T15:24:31.344Z,9.80
2018-05-18T15:27:02.386Z,7.87
2018-05-18T15:29:33.428Z,7.53
2018-05-18T15:32:04.510Z,8.10
2018-05-18T15:34:35.550Z,9.33
2018-05-18T15:37:06.558Z,8.53
2018-05-18T15:39:37.587Z,8.70
2018-05-18T15:42:08.595Z,8.43
2018-05-18T15:44:39.659Z,8.63
2018-05-18T15:47:10.659Z,8.70
2018-05-18T15:49:41.689Z,7.87
2018-05-18T15:52:12.771Z,8.23
2018-05-18T15:54:43.741Z,8.53
2018-05-18T15:57:14.794Z,7.70
2018-05-18T15:59:45.851Z,7.43
2018-05-18T16:02:16.842Z,8.27
2018-05-18T16:04:47.842Z,7.50
2018-05-18T16:07:18.920Z,7.23
2018-05-18T16:09:49.920Z,7.33
2018-05-18T16:12:20.936Z,7.63
2018-05-18T16:14:52.072Z,7.37
2018-05-18T16:17:23.108Z,7.27
2018-05-18T16:19:54.089Z,7.20
2018-05-18T16:22:25.124Z,6.90
2018-05-18T16:24:56.095Z,7.73
2018-05-18T16:27:27.129Z,7.23
2018-05-18T16:29:58.176Z,7.50
2018-05-18T16:32:29.215Z,6.97
2018-05-18T16:35:00.222Z,6.87
2018-05-18T16:37:31.268Z,7.00
2018-05-18T16:40:02.338Z,8.87
2018-05-18T16:42:33.359Z,6.93
2018-05-18T16:45:04.393Z,7.23
2018-05-18T16:47:35.416Z,7.83
2018-05-18T16:52:42.149Z,7.53
2018-05-18T16:55:13.130Z,7.87
2018-05-18T16:57:44.251Z,7.00
2018-05-18T17:00:15.233Z,7.17
2018-05-18T17:02:46.296Z,7.00
2018-05-18T17:05:17.358Z,6.40
2018-05-18T17:07:48.389Z,7.33
2018-05-18T17:10:19.416Z,7.93
2018-05-18T17:12:50.433Z,7.60
2018-05-18T17:15:21.422Z,7.80
2018-05-18T17:17:52.456Z,7.50
2018-05-18T17:20:23.438Z,6.50
2018-05-18T17:22:54.471Z,7.10
2018-05-18T17:25:25.511Z,7.53
2018-05-18T17:27:56.539Z,7.50
2018-05-18T17:30:28.232Z,7.73
2018-05-18T17:32:59.239Z,7.57
2018-05-18T17:35:30.229Z,7.57
2018-05-18T17:38:01.202Z,6.87
2018-05-18T17:40:32.267Z,7.10
2018-05-18T17:43:03.290Z,7.50
2018-05-18T17:45:42.008Z,7.87
2018-05-18T17:48:13.205Z,7.73
2018-05-18T17:50:44.375Z,8.20
2018-05-18T17:53:15.530Z,8.63
2018-05-18T17:55:46.703Z,8.73
2018-05-18T17:58:17.914Z,9.07
2018-05-18T18:00:49.072Z,8.57
2018-05-18T18:03:20.346Z,9.40
2018-05-18T18:05:51.407Z,9.13
2018-05-18T18:08:22.789Z,8.27
2018-05-18T18:10:54.004Z,9.77
2018-05-18T18:13:25.153Z,9.60
2018-05-18T18:15:56.290Z,9.17
2018-05-18T18:18:27.428Z,10.20
2018-05-18T18:20:58.550Z,9.50
2018-05-18T18:23:30.629Z,9.47
2018-05-18T18:26:01.643Z,10.17
2018-05-18T18:28:32.799Z,9.53
2018-05-18T18:31:03.768Z,9.83
2018-05-18T18:33:34.814Z,10.90
2018-05-18T18:36:05.852Z,10.13
2018-05-18T18:38:36.910Z,10.20
2018-05-18T18:41:07.920Z,9.23
2018-05-18T18:43:38.919Z,10.47
2018-05-18T18:46:09.945Z,10.47
2018-05-18T18:48:40.923Z,9.13
2018-05-18T18:51:11.942Z,9.97
2018-05-18T18:53:42.989Z,10.17
2018-05-18T18:56:14.053Z,9.83
2018-05-18T18:58:45.080Z,9.47
2018-05-18T19:01:16.034Z,9.50
2018-05-18T19:03:47.035Z,9.57
2018-05-18T19:06:18.118Z,9.27
2018-05-18T19:08:49.082Z,10.20
2018-05-18T19:11:20.117Z,10.73
2018-05-18T19:13:51.095Z,15.37
2018-05-18T19:16:22.130Z,14.77
2018-05-18T19:18:53.154Z,10.57
2018-05-18T19:21:24.178Z,9.93
2018-05-18T19:23:55.159Z,10.87
2018-05-18T19:26:26.162Z,10.02
2018-05-18T19:28:57.186Z,9.10
2018-05-18T19:31:28.217Z,9.70
2018-05-18T19:33:59.212Z,9.30
2018-05-18T19:36:30.301Z,15.57
2018-05-18T19:39:01.293Z,10.27
2018-05-18T19:41:32.328Z,9.87
2018-05-18T19:44:03.377Z,8.83
2018-05-18T19:46:34.364Z,8.87
2018-05-18T19:49:05.403Z,8.57
2018-05-18T19:51:36.430Z,9.53
2018-05-18T19:54:07.505Z,8.60
2018-05-18T19:56:38.512Z,8.53
2018-05-18T19:59:09.575Z,8.50
2018-05-18T20:01:40.566Z,9.30
2018-05-18T20:04:11.881Z,9.17
2018-05-18T20:06:42.917Z,8.67
2018-05-18T20:09:13.886Z,8.50
2018-05-18T20:11:44.901Z,8.93
2018-05-18T20:14:16.065Z,8.87
2018-05-18T20:16:47.089Z,8.93
2018-05-18T20:19:18.063Z,7.73
2018-05-18T20:21:49.048Z,7.93
2018-05-18T20:24:20.064Z,8.40
2018-05-18T20:26:51.069Z,8.77
2018-05-18T20:29:22.104Z,9.13
2018-05-18T20:31:53.131Z,8.63
2018-05-18T20:34:24.123Z,8.90
2018-05-18T20:36:55.197Z,9.17
2018-05-18T20:39:26.149Z,9.13
2018-05-18T20:41:57.138Z,9.03
2018-05-18T20:44:28.163Z,9.17
2018-05-18T20:46:59.186Z,8.53
2018-05-18T20:49:30.155Z,8.90
2018-05-18T20:52:01.183Z,9.03
2018-05-18T20:54:32.201Z,7.70
2018-05-18T20:57:03.232Z,8.83
2018-05-18T20:59:34.230Z,8.93
2018-05-18T21:02:05.252Z,8.70
2018-05-18T21:04:36.280Z,8.73
2018-05-18T21:07:07.293Z,8.70
2018-05-18T21:09:38.303Z,8.93
2018-05-18T21:12:09.364Z,8.67
2018-05-18T21:14:40.428Z,8.80
2018-05-18T21:17:11.552Z,9.07
2018-05-18T21:19:42.543Z,8.93
2018-05-18T21:22:13.578Z,9.23
2018-05-18T21:24:44.574Z,8.63
2018-05-18T21:27:15.612Z,8.53
2018-05-18T21:29:46.726Z,8.73
2018-05-18T21:32:17.760Z,9.23
2018-05-18T21:34:48.732Z,9.57
2018-05-18T21:37:19.739Z,9.57
2018-05-18T21:39:50.747Z,9.50
2018-05-18T21:42:21.774Z,9.73
2018-05-18T21:44:52.759Z,9.93
2018-05-18T21:47:23.732Z,10.00
2018-05-18T21:49:54.775Z,9.70
2018-05-18T21:52:25.740Z,9.90
2018-05-18T21:54:56.813Z,10.07
2018-05-18T21:57:27.789Z,8.50
2018-05-18T21:59:58.870Z,9.13
2018-05-18T22:02:29.812Z,8.87
2018-05-18T22:05:00.811Z,9.83
2018-05-18T22:07:31.776Z,9.83
2018-05-18T22:10:02.851Z,9.17
2018-05-18T22:12:33.847Z,9.43
2018-05-18T22:15:04.940Z,9.00
2018-05-18T22:17:35.915Z,8.80
2018-05-18T22:20:06.936Z,9.10
2018-05-18T22:22:37.944Z,8.30
2018-05-18T22:25:15.866Z,9.33
2018-05-18T22:27:46.869Z,8.63
2018-05-18T22:30:17.891Z,9.33
2018-05-18T22:32:48.902Z,9.33
2018-05-18T22:35:19.890Z,9.73
2018-05-18T22:37:50.920Z,9.83
2018-05-18T22:40:21.950Z,9.23
2018-05-18T22:42:52.973Z,9.20
2018-05-18T22:45:24.027Z,8.97
2018-05-18T22:47:55.020Z,9.00
2018-05-18T22:50:26.055Z,9.57
2018-05-18T22:52:57.088Z,8.90
2018-05-18T22:55:28.180Z,8.80
2018-05-18T22:57:59.187Z,9.17
2018-05-18T23:00:30.220Z,9.00
2018-05-18T23:03:01.254Z,9.37
2018-05-18T23:05:32.248Z,9.43
2018-05-18T23:08:03.279Z,8.83
2018-05-18T23:10:34.308Z,9.17
2018-05-18T23:13:05.328Z,9.07
2018-05-18T23:15:36.369Z,10.00
2018-05-18T23:18:07.396Z,9.80
2018-05-18T23:20:38.414Z,8.83
2018-05-18T23:23:09.457Z,10.47
2018-05-18T23:25:40.489Z,9.60
2018-05-18T23:28:11.493Z,10.03
2018-05-18T23:30:42.554Z,9.67
2018-05-18T23:33:13.552Z,9.70
2018-05-18T23:35:44.555Z,10.90
2018-05-18T23:38:15.577Z,9.73
2018-05-18T23:40:46.618Z,10.30
2018-05-18T23:43:17.610Z,11.43
2018-05-18T23:45:48.598Z,10.07
2018-05-18T23:48:19.592Z,10.57
2018-05-18T23:50:50.599Z,10.60
2018-05-18T23:53:21.629Z,10.73
2018-05-18T23:55:52.602Z,11.13
2018-05-18T23:58:23.597Z,10.50
